sensor_id;sensor_type;location;lat;lon;timestamp;P1;durP1;ratioP1;P2;durP2;ratioP2
10056;SDS011;5068;51.286;7.518;2023-03-01T00:00:51;3.88;;;2.15;;
10056;SDS011;5068;51.286;7.518;2023-03-01T00:02:25;3.83;;;2.25;;
10056;SDS011;5068;51.286;7.518;2023-03-01T00:03:58;4.53;;;2.33;;
10056;SDS011;5068;51.286;7.518;2023-03-01T00:05:32;4.47;;;2.28;;
10056;SDS011;5068;51.286;7.518;2023-03-01T00:07:05;4.40;;;2.40;;
10056;SDS011;5068;51.286;7.518;2023-03-01T00:08:39;4.32;;;2.63;;
10056;SDS011;5068;51.286;7.518;2023-03-01T00:10:12;5.43;;;2.47;;
10056;SDS011;5068;51.286;7.518;2023-03-01T00:11:46;4.65;;;2.55;;
10056;SDS011;5068;51.286;7.518;2023-03-01T00:13:20;4.75;;;2.45;;
10056;SDS011;5068;51.286;7.518;2023-03-01T00:14:54;5.07;;;2.38;;
10056;SDS011;5068;51.286;7.518;2023-03-01T00:16:27;4.60;;;2.50;;
10056;SDS011;5068;51.286;7.518;2023-03-01T00:18:05;5.63;;;3.05;;
10056;SDS011;5068;51.286;7.518;2023-03-01T00:19:38;3.92;;;2.30;;
10056;SDS011;5068;51.286;7.518;2023-03-01T00:21:12;5.93;;;2.47;;
10056;SDS011;5068;51.286;7.518;2023-03-01T00:22:45;3.55;;;2.22;;
10056;SDS011;5068;51.286;7.518;2023-03-01T00:24:18;4.15;;;2.30;;
10056;SDS011;5068;51.286;7.518;2023-03-01T00:25:52;3.75;;;2.28;;
10056;SDS011;5068;51.286;7.518;2023-03-01T00:27:25;5.07;;;2.13;;
10056;SDS011;5068;51.286;7.518;2023-03-01T00:28:59;4.88;;;2.83;;
10056;SDS011;5068;51.286;7.518;2023-03-01T00:30:32;3.85;;;2.35;;
10056;SDS011;5068;51.286;7.518;2023-03-01T00:32:05;5.07;;;2.50;;
10056;SDS011;5068;51.286;7.518;2023-03-01T00:33:39;4.47;;;2.40;;
10056;SDS011;5068;51.286;7.518;2023-03-01T00:35:12;5.03;;;2.55;;
10056;SDS011;5068;51.286;7.518;2023-03-01T00:36:45;6.15;;;2.30;;
10056;SDS011;5068;51.286;7.518;2023-03-01T00:38:20;5.13;;;2.60;;
10056;SDS011;5068;51.286;7.518;2023-03-01T00:39:53;7.00;;;2.60;;
10056;SDS011;5068;51.286;7.518;2023-03-01T00:41:26;5.03;;;2.78;;
10056;SDS011;5068;51.286;7.518;2023-03-01T00:42:59;5.95;;;3.05;;
10056;SDS011;5068;51.286;7.518;2023-03-01T00:44:34;5.63;;;2.28;;
10056;SDS011;5068;51.286;7.518;2023-03-01T00:46:08;5.13;;;2.70;;
10056;SDS011;5068;51.286;7.518;2023-03-01T00:47:43;5.28;;;2.80;;
10056;SDS011;5068;51.286;7.518;2023-03-01T00:49:17;5.30;;;2.40;;
10056;SDS011;5068;51.286;7.518;2023-03-01T00:50:50;5.13;;;2.88;;
10056;SDS011;5068;51.286;7.518;2023-03-01T00:52:22;4.55;;;2.28;;
10056;SDS011;5068;51.286;7.518;2023-03-01T00:53:57;4.95;;;2.63;;
10056;SDS011;5068;51.286;7.518;2023-03-01T00:55:33;5.47;;;2.63;;
10056;SDS011;5068;51.286;7.518;2023-03-01T00:57:09;4.18;;;2.40;;
10056;SDS011;5068;51.286;7.518;2023-03-01T00:58:43;4.90;;;2.40;;
10056;SDS011;5068;51.286;7.518;2023-03-01T01:00:17;4.40;;;2.22;;
10056;SDS011;5068;51.286;7.518;2023-03-01T01:01:52;4.68;;;2.92;;
10056;SDS011;5068;51.286;7.518;2023-03-01T01:03:26;4.30;;;2.28;;
10056;SDS011;5068;51.286;7.518;2023-03-01T01:04:59;4.93;;;2.45;;
10056;SDS011;5068;51.286;7.518;2023-03-01T01:06:33;4.80;;;2.35;;
10056;SDS011;5068;51.286;7.518;2023-03-01T01:08:09;4.38;;;2.30;;
10056;SDS011;5068;51.286;7.518;2023-03-01T01:09:44;3.75;;;2.20;;
10056;SDS011;5068;51.286;7.518;2023-03-01T01:11:17;4.70;;;2.42;;
10056;SDS011;5068;51.286;7.518;2023-03-01T01:12:51;5.07;;;2.30;;
10056;SDS011;5068;51.286;7.518;2023-03-01T01:14:24;3.80;;;2.33;;
10056;SDS011;5068;51.286;7.518;2023-03-01T01:16:00;4.80;;;2.70;;
10056;SDS011;5068;51.286;7.518;2023-03-01T01:17:32;4.80;;;2.50;;
10056;SDS011;5068;51.286;7.518;2023-03-01T01:19:06;3.95;;;2.50;;
10056;SDS011;5068;51.286;7.518;2023-03-01T01:20:39;5.35;;;2.30;;
10056;SDS011;5068;51.286;7.518;2023-03-01T01:22:12;3.67;;;1.92;;
10056;SDS011;5068;51.286;7.518;2023-03-01T01:23:46;5.28;;;2.58;;
10056;SDS011;5068;51.286;7.518;2023-03-01T01:25:21;4.15;;;2.20;;
10056;SDS011;5068;51.286;7.518;2023-03-01T01:26:56;4.85;;;2.35;;
10056;SDS011;5068;51.286;7.518;2023-03-01T01:28:30;3.42;;;2.10;;
10056;SDS011;5068;51.286;7.518;2023-03-01T01:30:03;5.03;;;2.47;;
10056;SDS011;5068;51.286;7.518;2023-03-01T01:31:38;4.18;;;2.40;;
10056;SDS011;5068;51.286;7.518;2023-03-01T01:33:14;5.97;;;2.33;;
10056;SDS011;5068;51.286;7.518;2023-03-01T01:34:46;5.78;;;2.25;;
10056;SDS011;5068;51.286;7.518;2023-03-01T01:36:20;3.75;;;2.30;;
10056;SDS011;5068;51.286;7.518;2023-03-01T01:37:54;4.53;;;2.60;;
10056;SDS011;5068;51.286;7.518;2023-03-01T01:39:26;4.82;;;2.72;;
10056;SDS011;5068;51.286;7.518;2023-03-01T01:41:00;5.63;;;2.65;;
10056;SDS011;5068;51.286;7.518;2023-03-01T01:42:34;4.82;;;2.85;;
10056;SDS011;5068;51.286;7.518;2023-03-01T01:44:14;5.40;;;2.55;;
10056;SDS011;5068;51.286;7.518;2023-03-01T01:45:51;5.30;;;2.22;;
10056;SDS011;5068;51.286;7.518;2023-03-01T01:47:32;6.57;;;2.83;;
10056;SDS011;5068;51.286;7.518;2023-03-01T01:49:05;6.25;;;2.88;;
10056;SDS011;5068;51.286;7.518;2023-03-01T01:50:51;3.88;;;2.30;;
10056;SDS011;5068;51.286;7.518;2023-03-01T01:52:31;5.32;;;2.60;;
10056;SDS011;5068;51.286;7.518;2023-03-01T01:54:11;4.07;;;2.40;;
10056;SDS011;5068;51.286;7.518;2023-03-01T01:55:51;5.70;;;2.53;;
10056;SDS011;5068;51.286;7.518;2023-03-01T01:57:32;4.43;;;2.20;;
10056;SDS011;5068;51.286;7.518;2023-03-01T01:59:11;5.15;;;2.10;;
10056;SDS011;5068;51.286;7.518;2023-03-01T02:00:46;5.05;;;2.40;;
10056;SDS011;5068;51.286;7.518;2023-03-01T02:02:21;4.15;;;2.28;;
10056;SDS011;5068;51.286;7.518;2023-03-01T02:03:55;4.35;;;2.20;;
10056;SDS011;5068;51.286;7.518;2023-03-01T02:05:36;4.18;;;2.25;;
10056;SDS011;5068;51.286;7.518;2023-03-01T02:07:22;4.38;;;2.50;;
10056;SDS011;5068;51.286;7.518;2023-03-01T02:08:57;5.60;;;2.55;;
10056;SDS011;5068;51.286;7.518;2023-03-01T02:10:39;5.50;;;2.58;;
10056;SDS011;5068;51.286;7.518;2023-03-01T02:12:14;5.30;;;2.80;;
10056;SDS011;5068;51.286;7.518;2023-03-01T02:13:53;5.13;;;2.53;;
10056;SDS011;5068;51.286;7.518;2023-03-01T02:15:29;4.07;;;2.25;;
10056;SDS011;5068;51.286;7.518;2023-03-01T02:17:05;5.43;;;2.28;;
10056;SDS011;5068;51.286;7.518;2023-03-01T02:18:38;5.03;;;2.53;;
10056;SDS011;5068;51.286;7.518;2023-03-01T02:20:16;5.18;;;2.35;;
10056;SDS011;5068;51.286;7.518;2023-03-01T02:21:59;5.60;;;2.45;;
10056;SDS011;5068;51.286;7.518;2023-03-01T02:23:43;4.13;;;2.25;;
10056;SDS011;5068;51.286;7.518;2023-03-01T02:25:23;7.10;;;2.67;;
10056;SDS011;5068;51.286;7.518;2023-03-01T02:27:07;3.67;;;2.20;;
10056;SDS011;5068;51.286;7.518;2023-03-01T02:28:42;4.82;;;2.50;;
10056;SDS011;5068;51.286;7.518;2023-03-01T02:30:17;4.10;;;2.30;;
10056;SDS011;5068;51.286;7.518;2023-03-01T02:31:52;4.15;;;2.30;;
10056;SDS011;5068;51.286;7.518;2023-03-01T02:33:30;5.20;;;2.33;;
10056;SDS011;5068;51.286;7.518;2023-03-01T02:35:08;5.00;;;2.58;;
10056;SDS011;5068;51.286;7.518;2023-03-01T02:36:47;7.07;;;3.03;;
10056;SDS011;5068;51.286;7.518;2023-03-01T02:38:25;4.22;;;2.25;;
10056;SDS011;5068;51.286;7.518;2023-03-01T02:39:59;5.43;;;2.42;;
10056;SDS011;5068;51.286;7.518;2023-03-01T02:41:44;5.30;;;2.20;;
10056;SDS011;5068;51.286;7.518;2023-03-01T02:43:22;5.60;;;2.35;;
10056;SDS011;5068;51.286;7.518;2023-03-01T02:45:02;4.75;;;2.53;;
10056;SDS011;5068;51.286;7.518;2023-03-01T02:46:41;4.05;;;2.30;;
10056;SDS011;5068;51.286;7.518;2023-03-01T02:48:16;4.57;;;2.10;;
10056;SDS011;5068;51.286;7.518;2023-03-01T02:49:48;4.93;;;2.53;;
10056;SDS011;5068;51.286;7.518;2023-03-01T02:51:27;4.47;;;2.00;;
10056;SDS011;5068;51.286;7.518;2023-03-01T02:53:19;6.03;;;2.58;;
10056;SDS011;5068;51.286;7.518;2023-03-01T02:55:03;4.82;;;2.55;;
10056;SDS011;5068;51.286;7.518;2023-03-01T02:56:41;5.82;;;2.70;;
10056;SDS011;5068;51.286;7.518;2023-03-01T02:58:21;5.80;;;2.97;;
10056;SDS011;5068;51.286;7.518;2023-03-01T02:59:55;4.47;;;2.58;;
10056;SDS011;5068;51.286;7.518;2023-03-01T03:01:35;3.75;;;2.38;;
10056;SDS011;5068;51.286;7.518;2023-03-01T03:03:12;5.35;;;2.38;;
10056;SDS011;5068;51.286;7.518;2023-03-01T03:04:49;4.90;;;2.65;;
10056;SDS011;5068;51.286;7.518;2023-03-01T03:06:23;4.18;;;2.33;;
10056;SDS011;5068;51.286;7.518;2023-03-01T03:07:58;5.13;;;2.60;;
10056;SDS011;5068;51.286;7.518;2023-03-01T03:09:40;4.70;;;2.45;;
10056;SDS011;5068;51.286;7.518;2023-03-01T03:11:14;4.88;;;2.33;;
10056;SDS011;5068;51.286;7.518;2023-03-01T03:12:48;5.70;;;2.83;;
10056;SDS011;5068;51.286;7.518;2023-03-01T03:14:26;5.72;;;2.67;;
10056;SDS011;5068;51.286;7.518;2023-03-01T03:17:41;4.60;;;2.08;;
10056;SDS011;5068;51.286;7.518;2023-03-01T03:19:17;3.95;;;2.10;;
10056;SDS011;5068;51.286;7.518;2023-03-01T03:20:53;4.85;;;2.40;;
10056;SDS011;5068;51.286;7.518;2023-03-01T03:22:27;5.28;;;2.83;;
10056;SDS011;5068;51.286;7.518;2023-03-01T03:24:01;5.30;;;2.63;;
10056;SDS011;5068;51.286;7.518;2023-03-01T03:25:36;4.63;;;2.40;;
10056;SDS011;5068;51.286;7.518;2023-03-01T03:27:10;4.68;;;2.72;;
10056;SDS011;5068;51.286;7.518;2023-03-01T03:28:44;5.05;;;2.58;;
10056;SDS011;5068;51.286;7.518;2023-03-01T03:30:18;5.45;;;2.20;;
10056;SDS011;5068;51.286;7.518;2023-03-01T03:31:55;5.80;;;3.00;;
10056;SDS011;5068;51.286;7.518;2023-03-01T03:33:31;5.88;;;2.83;;
10056;SDS011;5068;51.286;7.518;2023-03-01T03:35:06;5.65;;;2.58;;
10056;SDS011;5068;51.286;7.518;2023-03-01T03:36:42;5.38;;;2.60;;
10056;SDS011;5068;51.286;7.518;2023-03-01T03:38:17;5.75;;;2.88;;
10056;SDS011;5068;51.286;7.518;2023-03-01T03:39:53;4.85;;;2.63;;
10056;SDS011;5068;51.286;7.518;2023-03-01T03:41:27;5.53;;;2.42;;
10056;SDS011;5068;51.286;7.518;2023-03-01T03:43:01;4.70;;;2.40;;
10056;SDS011;5068;51.286;7.518;2023-03-01T03:44:35;5.75;;;2.40;;
10056;SDS011;5068;51.286;7.518;2023-03-01T03:46:10;4.57;;;2.47;;
10056;SDS011;5068;51.286;7.518;2023-03-01T03:47:44;4.72;;;2.70;;
10056;SDS011;5068;51.286;7.518;2023-03-01T03:49:19;6.45;;;2.80;;
10056;SDS011;5068;51.286;7.518;2023-03-01T03:50:53;3.33;;;2.33;;
10056;SDS011;5068;51.286;7.518;2023-03-01T03:52:29;4.53;;;2.53;;
10056;SDS011;5068;51.286;7.518;2023-03-01T03:54:02;5.65;;;2.50;;
10056;SDS011;5068;51.286;7.518;2023-03-01T03:55:36;4.55;;;2.88;;
10056;SDS011;5068;51.286;7.518;2023-03-01T03:57:11;5.28;;;3.50;;
10056;SDS011;5068;51.286;7.518;2023-03-01T03:58:45;4.85;;;2.50;;
10056;SDS011;5068;51.286;7.518;2023-03-01T04:00:20;3.72;;;2.08;;
10056;SDS011;5068;51.286;7.518;2023-03-01T04:01:55;4.93;;;2.40;;
10056;SDS011;5068;51.286;7.518;2023-03-01T04:03:29;4.78;;;2.50;;
10056;SDS011;5068;51.286;7.518;2023-03-01T04:05:08;5.13;;;2.60;;
10056;SDS011;5068;51.286;7.518;2023-03-01T04:06:46;4.75;;;2.38;;
10056;SDS011;5068;51.286;7.518;2023-03-01T04:08:21;5.90;;;2.70;;
10056;SDS011;5068;51.286;7.518;2023-03-01T04:09:56;6.05;;;2.90;;
10056;SDS011;5068;51.286;7.518;2023-03-01T04:11:29;5.28;;;2.88;;
10056;SDS011;5068;51.286;7.518;2023-03-01T04:13:03;4.63;;;2.58;;
10056;SDS011;5068;51.286;7.518;2023-03-01T04:14:37;4.38;;;2.80;;
10056;SDS011;5068;51.286;7.518;2023-03-01T04:16:11;4.32;;;2.97;;
10056;SDS011;5068;51.286;7.518;2023-03-01T04:17:45;5.10;;;2.85;;
10056;SDS011;5068;51.286;7.518;2023-03-01T04:19:19;4.82;;;2.30;;
10056;SDS011;5068;51.286;7.518;2023-03-01T04:20:54;4.45;;;2.80;;
10056;SDS011;5068;51.286;7.518;2023-03-01T04:22:29;6.07;;;2.70;;
10056;SDS011;5068;51.286;7.518;2023-03-01T04:24:03;5.35;;;2.70;;
10056;SDS011;5068;51.286;7.518;2023-03-01T04:25:39;7.22;;;2.80;;
10056;SDS011;5068;51.286;7.518;2023-03-01T04:27:14;5.18;;;2.72;;
10056;SDS011;5068;51.286;7.518;2023-03-01T04:28:48;5.40;;;2.70;;
10056;SDS011;5068;51.286;7.518;2023-03-01T04:30:22;4.97;;;2.90;;
10056;SDS011;5068;51.286;7.518;2023-03-01T04:31:57;5.35;;;2.50;;
10056;SDS011;5068;51.286;7.518;2023-03-01T04:33:31;6.30;;;2.78;;
10056;SDS011;5068;51.286;7.518;2023-03-01T04:35:04;4.43;;;2.25;;
10056;SDS011;5068;51.286;7.518;2023-03-01T04:36:40;5.50;;;2.80;;
10056;SDS011;5068;51.286;7.518;2023-03-01T04:38:19;5.32;;;2.85;;
10056;SDS011;5068;51.286;7.518;2023-03-01T04:39:53;5.53;;;2.45;;
10056;SDS011;5068;51.286;7.518;2023-03-01T04:41:27;5.82;;;2.78;;
10056;SDS011;5068;51.286;7.518;2023-03-01T04:43:00;5.80;;;2.85;;
10056;SDS011;5068;51.286;7.518;2023-03-01T04:44:34;4.50;;;2.58;;
10056;SDS011;5068;51.286;7.518;2023-03-01T04:46:10;5.63;;;3.20;;
10056;SDS011;5068;51.286;7.518;2023-03-01T04:47:46;4.82;;;2.80;;
10056;SDS011;5068;51.286;7.518;2023-03-01T04:49:20;5.13;;;2.88;;
10056;SDS011;5068;51.286;7.518;2023-03-01T04:50:54;5.30;;;2.92;;
10056;SDS011;5068;51.286;7.518;2023-03-01T04:52:30;4.85;;;2.88;;
10056;SDS011;5068;51.286;7.518;2023-03-01T04:54:04;4.38;;;2.70;;
10056;SDS011;5068;51.286;7.518;2023-03-01T04:55:40;4.88;;;2.85;;
10056;SDS011;5068;51.286;7.518;2023-03-01T04:57:14;5.38;;;2.80;;
10056;SDS011;5068;51.286;7.518;2023-03-01T04:58:48;5.40;;;2.75;;
10056;SDS011;5068;51.286;7.518;2023-03-01T05:01:57;6.97;;;2.95;;
10056;SDS011;5068;51.286;7.518;2023-03-01T05:03:32;5.50;;;2.92;;
10056;SDS011;5068;51.286;7.518;2023-03-01T05:05:06;6.70;;;2.75;;
10056;SDS011;5068;51.286;7.518;2023-03-01T05:06:40;6.13;;;2.80;;
10056;SDS011;5068;51.286;7.518;2023-03-01T05:08:15;5.55;;;2.85;;
10056;SDS011;5068;51.286;7.518;2023-03-01T05:09:50;6.40;;;2.88;;
10056;SDS011;5068;51.286;7.518;2023-03-01T05:13:03;5.45;;;2.58;;
10056;SDS011;5068;51.286;7.518;2023-03-01T05:14:38;5.53;;;3.03;;
10056;SDS011;5068;51.286;7.518;2023-03-01T05:16:12;6.15;;;2.78;;
10056;SDS011;5068;51.286;7.518;2023-03-01T05:17:47;5.45;;;3.10;;
10056;SDS011;5068;51.286;7.518;2023-03-01T05:19:20;6.07;;;3.45;;
10056;SDS011;5068;51.286;7.518;2023-03-01T05:20:55;6.30;;;2.83;;
10056;SDS011;5068;51.286;7.518;2023-03-01T05:22:36;7.93;;;3.80;;
10056;SDS011;5068;51.286;7.518;2023-03-01T05:24:12;6.93;;;3.45;;
10056;SDS011;5068;51.286;7.518;2023-03-01T05:25:46;5.38;;;2.95;;
10056;SDS011;5068;51.286;7.518;2023-03-01T05:27:20;6.90;;;3.95;;
10056;SDS011;5068;51.286;7.518;2023-03-01T05:28:53;7.13;;;3.47;;
10056;SDS011;5068;51.286;7.518;2023-03-01T05:30:31;5.65;;;3.15;;
10056;SDS011;5068;51.286;7.518;2023-03-01T05:32:05;6.80;;;3.13;;
10056;SDS011;5068;51.286;7.518;2023-03-01T05:33:40;7.57;;;3.70;;
10056;SDS011;5068;51.286;7.518;2023-03-01T05:35:16;4.70;;;3.13;;
10056;SDS011;5068;51.286;7.518;2023-03-01T05:36:51;6.18;;;3.63;;
10056;SDS011;5068;51.286;7.518;2023-03-01T05:38:26;5.78;;;2.88;;
10056;SDS011;5068;51.286;7.518;2023-03-01T05:40:01;6.03;;;3.58;;
10056;SDS011;5068;51.286;7.518;2023-03-01T05:41:37;6.78;;;2.72;;
10056;SDS011;5068;51.286;7.518;2023-03-01T05:43:13;5.45;;;3.00;;
10056;SDS011;5068;51.286;7.518;2023-03-01T05:44:49;5.28;;;2.80;;
10056;SDS011;5068;51.286;7.518;2023-03-01T05:46:23;5.50;;;3.00;;
10056;SDS011;5068;51.286;7.518;2023-03-01T05:47:57;7.93;;;3.40;;
10056;SDS011;5068;51.286;7.518;2023-03-01T05:49:31;6.15;;;2.97;;
10056;SDS011;5068;51.286;7.518;2023-03-01T05:51:07;5.93;;;2.85;;
10056;SDS011;5068;51.286;7.518;2023-03-01T05:52:41;6.55;;;2.97;;
10056;SDS011;5068;51.286;7.518;2023-03-01T05:54:14;6.78;;;3.10;;
10056;SDS011;5068;51.286;7.518;2023-03-01T05:55:50;5.20;;;2.80;;
10056;SDS011;5068;51.286;7.518;2023-03-01T05:57:24;5.32;;;2.80;;
10056;SDS011;5068;51.286;7.518;2023-03-01T05:59:01;5.43;;;2.83;;
10056;SDS011;5068;51.286;7.518;2023-03-01T06:00:37;5.32;;;3.03;;
10056;SDS011;5068;51.286;7.518;2023-03-01T06:02:11;5.82;;;2.70;;
10056;SDS011;5068;51.286;7.518;2023-03-01T06:03:45;5.88;;;3.05;;
10056;SDS011;5068;51.286;7.518;2023-03-01T06:05:20;5.78;;;2.80;;
10056;SDS011;5068;51.286;7.518;2023-03-01T06:06:54;6.47;;;3.22;;
10056;SDS011;5068;51.286;7.518;2023-03-01T06:08:31;5.82;;;2.90;;
10056;SDS011;5068;51.286;7.518;2023-03-01T06:11:41;5.47;;;3.22;;
10056;SDS011;5068;51.286;7.518;2023-03-01T06:13:17;6.78;;;2.85;;
10056;SDS011;5068;51.286;7.518;2023-03-01T06:14:51;9.98;;;3.75;;
10056;SDS011;5068;51.286;7.518;2023-03-01T06:16:23;7.00;;;3.53;;
10056;SDS011;5068;51.286;7.518;2023-03-01T06:17:56;5.20;;;2.78;;
10056;SDS011;5068;51.286;7.518;2023-03-01T06:19:30;6.20;;;3.25;;
10056;SDS011;5068;51.286;7.518;2023-03-01T06:21:03;7.93;;;3.88;;
10056;SDS011;5068;51.286;7.518;2023-03-01T06:22:38;5.35;;;2.92;;
10056;SDS011;5068;51.286;7.518;2023-03-01T06:24:10;9.30;;;3.10;;
10056;SDS011;5068;51.286;7.518;2023-03-01T06:25:43;7.13;;;3.30;;
10056;SDS011;5068;51.286;7.518;2023-03-01T06:27:17;5.50;;;3.40;;
10056;SDS011;5068;51.286;7.518;2023-03-01T06:28:50;6.18;;;3.33;;
10056;SDS011;5068;51.286;7.518;2023-03-01T06:30:24;7.18;;;2.97;;
10056;SDS011;5068;51.286;7.518;2023-03-01T06:31:58;5.30;;;2.97;;
10056;SDS011;5068;51.286;7.518;2023-03-01T06:33:30;7.97;;;3.13;;
10056;SDS011;5068;51.286;7.518;2023-03-01T06:35:04;6.45;;;2.97;;
10056;SDS011;5068;51.286;7.518;2023-03-01T06:36:38;8.68;;;3.85;;
10056;SDS011;5068;51.286;7.518;2023-03-01T06:38:11;6.82;;;3.30;;
10056;SDS011;5068;51.286;7.518;2023-03-01T06:39:46;6.25;;;3.30;;
10056;SDS011;5068;51.286;7.518;2023-03-01T06:41:19;8.13;;;3.33;;
10056;SDS011;5068;51.286;7.518;2023-03-01T06:42:53;7.97;;;3.47;;
10056;SDS011;5068;51.286;7.518;2023-03-01T06:44:27;8.10;;;3.50;;
10056;SDS011;5068;51.286;7.518;2023-03-01T06:46:02;8.98;;;3.63;;
10056;SDS011;5068;51.286;7.518;2023-03-01T06:47:38;8.02;;;3.53;;
10056;SDS011;5068;51.286;7.518;2023-03-01T06:49:11;8.38;;;3.75;;
10056;SDS011;5068;51.286;7.518;2023-03-01T06:50:44;5.13;;;3.05;;
10056;SDS011;5068;51.286;7.518;2023-03-01T06:52:17;6.22;;;3.60;;
10056;SDS011;5068;51.286;7.518;2023-03-01T06:53:50;6.38;;;3.10;;
10056;SDS011;5068;51.286;7.518;2023-03-01T06:55:24;6.85;;;3.67;;
10056;SDS011;5068;51.286;7.518;2023-03-01T06:56:57;6.47;;;3.35;;
10056;SDS011;5068;51.286;7.518;2023-03-01T06:58:32;6.95;;;3.88;;
10056;SDS011;5068;51.286;7.518;2023-03-01T07:00:05;8.27;;;3.17;;
10056;SDS011;5068;51.286;7.518;2023-03-01T07:01:41;8.27;;;3.55;;
10056;SDS011;5068;51.286;7.518;2023-03-01T07:03:14;6.97;;;3.25;;
10056;SDS011;5068;51.286;7.518;2023-03-01T07:04:48;8.02;;;3.40;;
10056;SDS011;5068;51.286;7.518;2023-03-01T07:06:22;6.10;;;3.33;;
10056;SDS011;5068;51.286;7.518;2023-03-01T07:07:56;8.45;;;3.50;;
10056;SDS011;5068;51.286;7.518;2023-03-01T07:09:29;7.35;;;3.60;;
10056;SDS011;5068;51.286;7.518;2023-03-01T07:11:02;6.32;;;3.00;;
10056;SDS011;5068;51.286;7.518;2023-03-01T07:12:37;8.05;;;3.78;;
10056;SDS011;5068;51.286;7.518;2023-03-01T07:14:14;6.43;;;3.50;;
10056;SDS011;5068;51.286;7.518;2023-03-01T07:15:48;7.93;;;3.85;;
10056;SDS011;5068;51.286;7.518;2023-03-01T07:17:21;9.60;;;3.60;;
10056;SDS011;5068;51.286;7.518;2023-03-01T07:18:54;7.55;;;4.05;;
10056;SDS011;5068;51.286;7.518;2023-03-01T07:20:30;5.93;;;3.60;;
10056;SDS011;5068;51.286;7.518;2023-03-01T07:22:03;6.85;;;3.85;;
10056;SDS011;5068;51.286;7.518;2023-03-01T07:23:39;7.80;;;3.80;;
10056;SDS011;5068;51.286;7.518;2023-03-01T07:25:12;8.23;;;3.70;;
10056;SDS011;5068;51.286;7.518;2023-03-01T07:26:47;8.90;;;3.58;;
10056;SDS011;5068;51.286;7.518;2023-03-01T07:28:22;8.98;;;4.07;;
10056;SDS011;5068;51.286;7.518;2023-03-01T07:29:57;6.57;;;3.42;;
10056;SDS011;5068;51.286;7.518;2023-03-01T07:31:30;6.95;;;3.22;;
10056;SDS011;5068;51.286;7.518;2023-03-01T07:33:04;7.38;;;4.10;;
10056;SDS011;5068;51.286;7.518;2023-03-01T07:34:37;6.68;;;3.60;;
10056;SDS011;5068;51.286;7.518;2023-03-01T07:36:10;6.97;;;3.70;;
10056;SDS011;5068;51.286;7.518;2023-03-01T07:37:47;8.48;;;4.10;;
10056;SDS011;5068;51.286;7.518;2023-03-01T07:39:20;9.45;;;4.10;;
10056;SDS011;5068;51.286;7.518;2023-03-01T07:40:57;9.23;;;3.85;;
10056;SDS011;5068;51.286;7.518;2023-03-01T07:42:32;8.30;;;4.30;;
10056;SDS011;5068;51.286;7.518;2023-03-01T07:44:05;8.75;;;4.57;;
10056;SDS011;5068;51.286;7.518;2023-03-01T07:45:40;10.02;;;4.75;;
10056;SDS011;5068;51.286;7.518;2023-03-01T07:47:13;8.75;;;4.32;;
10056;SDS011;5068;51.286;7.518;2023-03-01T07:48:47;6.47;;;3.90;;
10056;SDS011;5068;51.286;7.518;2023-03-01T07:50:20;8.07;;;4.25;;
10056;SDS011;5068;51.286;7.518;2023-03-01T07:51:55;7.45;;;4.00;;
10056;SDS011;5068;51.286;7.518;2023-03-01T07:53:28;8.02;;;4.40;;
10056;SDS011;5068;51.286;7.518;2023-03-01T07:55:02;8.20;;;4.10;;
10056;SDS011;5068;51.286;7.518;2023-03-01T07:56:36;10.38;;;4.57;;
10056;SDS011;5068;51.286;7.518;2023-03-01T07:58:09;7.95;;;4.70;;
10056;SDS011;5068;51.286;7.518;2023-03-01T07:59:42;9.88;;;4.13;;
10056;SDS011;5068;51.286;7.518;2023-03-01T08:01:18;7.85;;;4.53;;
10056;SDS011;5068;51.286;7.518;2023-03-01T08:02:53;9.93;;;4.75;;
10056;SDS011;5068;51.286;7.518;2023-03-01T08:04:26;7.20;;;3.85;;
10056;SDS011;5068;51.286;7.518;2023-03-01T08:06:00;8.18;;;4.28;;
10056;SDS011;5068;51.286;7.518;2023-03-01T08:07:34;7.45;;;4.35;;
10056;SDS011;5068;51.286;7.518;2023-03-01T08:09:07;8.07;;;4.72;;
10056;SDS011;5068;51.286;7.518;2023-03-01T08:10:41;11.68;;;5.15;;
10056;SDS011;5068;51.286;7.518;2023-03-01T08:12:14;9.57;;;4.47;;
10056;SDS011;5068;51.286;7.518;2023-03-01T08:13:48;8.38;;;4.50;;
10056;SDS011;5068;51.286;7.518;2023-03-01T08:15:23;8.15;;;3.97;;
10056;SDS011;5068;51.286;7.518;2023-03-01T08:16:57;8.07;;;3.95;;
10056;SDS011;5068;51.286;7.518;2023-03-01T08:18:31;7.88;;;4.63;;
10056;SDS011;5068;51.286;7.518;2023-03-01T08:20:05;6.05;;;4.13;;
10056;SDS011;5068;51.286;7.518;2023-03-01T08:21:39;8.52;;;4.32;;
10056;SDS011;5068;51.286;7.518;2023-03-01T08:23:12;10.05;;;5.05;;
10056;SDS011;5068;51.286;7.518;2023-03-01T08:24:46;8.40;;;4.85;;
10056;SDS011;5068;51.286;7.518;2023-03-01T08:26:20;9.57;;;4.88;;
10056;SDS011;5068;51.286;7.518;2023-03-01T08:27:53;7.60;;;4.47;;
10056;SDS011;5068;51.286;7.518;2023-03-01T08:29:26;10.23;;;5.15;;
10056;SDS011;5068;51.286;7.518;2023-03-01T08:31:00;9.90;;;5.20;;
10056;SDS011;5068;51.286;7.518;2023-03-01T08:32:36;9.70;;;5.05;;
10056;SDS011;5068;51.286;7.518;2023-03-01T08:34:12;10.82;;;5.78;;
10056;SDS011;5068;51.286;7.518;2023-03-01T08:35:47;10.90;;;5.07;;
10056;SDS011;5068;51.286;7.518;2023-03-01T08:37:20;9.43;;;5.38;;
10056;SDS011;5068;51.286;7.518;2023-03-01T08:38:53;11.05;;;5.25;;
10056;SDS011;5068;51.286;7.518;2023-03-01T08:40:27;12.27;;;5.90;;
10056;SDS011;5068;51.286;7.518;2023-03-01T08:42:00;9.52;;;4.90;;
10056;SDS011;5068;51.286;7.518;2023-03-01T08:43:34;9.75;;;5.35;;
10056;SDS011;5068;51.286;7.518;2023-03-01T08:45:07;10.10;;;5.30;;
10056;SDS011;5068;51.286;7.518;2023-03-01T08:46:42;11.02;;;5.50;;
10056;SDS011;5068;51.286;7.518;2023-03-01T08:48:18;9.55;;;5.40;;
10056;SDS011;5068;51.286;7.518;2023-03-01T08:49:51;10.93;;;5.63;;
10056;SDS011;5068;51.286;7.518;2023-03-01T08:51:25;10.77;;;5.53;;
10056;SDS011;5068;51.286;7.518;2023-03-01T08:53:00;12.02;;;5.80;;
10056;SDS011;5068;51.286;7.518;2023-03-01T08:54:33;8.88;;;5.53;;
10056;SDS011;5068;51.286;7.518;2023-03-01T08:56:07;9.73;;;5.18;;
10056;SDS011;5068;51.286;7.518;2023-03-01T08:57:40;9.52;;;5.45;;
10056;SDS011;5068;51.286;7.518;2023-03-01T08:59:14;8.85;;;5.05;;
10056;SDS011;5068;51.286;7.518;2023-03-01T09:00:49;10.25;;;5.30;;
10056;SDS011;5068;51.286;7.518;2023-03-01T09:02:22;10.18;;;5.55;;
10056;SDS011;5068;51.286;7.518;2023-03-01T09:03:57;9.65;;;5.28;;
10056;SDS011;5068;51.286;7.518;2023-03-01T09:05:30;10.65;;;5.50;;
10056;SDS011;5068;51.286;7.518;2023-03-01T09:07:04;13.07;;;5.68;;
10056;SDS011;5068;51.286;7.518;2023-03-01T09:08:39;9.45;;;5.35;;
10056;SDS011;5068;51.286;7.518;2023-03-01T09:10:14;10.25;;;5.65;;
10056;SDS011;5068;51.286;7.518;2023-03-01T09:11:49;9.98;;;5.63;;
10056;SDS011;5068;51.286;7.518;2023-03-01T09:13:22;9.38;;;5.38;;
10056;SDS011;5068;51.286;7.518;2023-03-01T09:14:56;9.70;;;5.40;;
10056;SDS011;5068;51.286;7.518;2023-03-01T09:16:29;8.85;;;4.35;;
10056;SDS011;5068;51.286;7.518;2023-03-01T09:18:07;9.88;;;5.28;;
10056;SDS011;5068;51.286;7.518;2023-03-01T09:19:42;10.18;;;5.78;;
10056;SDS011;5068;51.286;7.518;2023-03-01T09:21:15;7.28;;;4.78;;
10056;SDS011;5068;51.286;7.518;2023-03-01T09:23:07;10.40;;;5.55;;
10056;SDS011;5068;51.286;7.518;2023-03-01T09:24:41;9.23;;;5.60;;
10056;SDS011;5068;51.286;7.518;2023-03-01T09:26:15;8.65;;;5.25;;
10056;SDS011;5068;51.286;7.518;2023-03-01T09:27:51;9.00;;;5.47;;
10056;SDS011;5068;51.286;7.518;2023-03-01T09:29:24;9.77;;;5.38;;
10056;SDS011;5068;51.286;7.518;2023-03-01T09:31:00;9.20;;;5.25;;
10056;SDS011;5068;51.286;7.518;2023-03-01T09:32:34;9.93;;;5.68;;
10056;SDS011;5068;51.286;7.518;2023-03-01T09:34:07;9.45;;;5.28;;
10056;SDS011;5068;51.286;7.518;2023-03-01T09:35:43;9.15;;;5.22;;
10056;SDS011;5068;51.286;7.518;2023-03-01T09:37:18;9.82;;;5.68;;
10056;SDS011;5068;51.286;7.518;2023-03-01T09:38:51;9.00;;;5.75;;
10056;SDS011;5068;51.286;7.518;2023-03-01T09:40:26;11.65;;;5.57;;
10056;SDS011;5068;51.286;7.518;2023-03-01T09:42:05;11.38;;;6.07;;
10056;SDS011;5068;51.286;7.518;2023-03-01T09:43:40;8.73;;;5.75;;
10056;SDS011;5068;51.286;7.518;2023-03-01T09:45:26;9.77;;;5.30;;
10056;SDS011;5068;51.286;7.518;2023-03-01T09:47:08;11.55;;;5.53;;